Hauptseite
METAR-TAF:

METAR-TAF

Flughäfen :

Nürnberg, Deutschland

Flughafen Nürnberg

Breite: 49-30N, Länge: 011-03E, Höhe: 318 m

Beobachtung

Neuester Wetterbericht von vor 19 Minuten, um 11:20 UTC
Wind 10 kt aus Ost, variierte zwischen Nord/Nordost und Ost/Südost
Temperatur 12°C
Luftfeuchtigkeit 44%
Luftdruck 1026 hPa
Sichtweite 10 km oder mehr
keine Wolken unter 1500 m und keine Kumulonimbus oder Gewitterwolken

METAR: EDDN 251120Z 08010KT 030V110 CAVOK 12/M00 Q1026 NOSIG

Zeit: 12:39 (11:39 UTC)

Prognose

Neuester Wetterbericht von vor 39 Minuten, um 11:00 UTC
Gültige Prognose vom 25 um 12 UTC bis 26 um 12 UTC
Wind 10 kt aus Ost
Sichtweite 10 km oder mehr
keine Wolken unter 1500 m und keine Kumulonimbus oder Gewitterwolken
Übergehend zu
vom 25 um 17 UTC bis 25 um 19 UTC
Wind 5 kt aus Ost/Nordost

TAF: EDDN 251100Z 2512/2612 10010KT CAVOK BECMG 2517/2519 07005KT

Wetterbeobachtungen und Prognosen von mehr als 4000 Flughäfen (METAR und TAF Bericht).

Die verfügbaren Stationen werden durch gelbe und rote Markierungen auf der Karte dargestellt.

Führen Sie die Maus auf sie, um den Namen der Station zu sehen.

Darauf klicken, um die Beobachtung von Wetterbeobachtungen und Prognosen zu sehen.

Um die Karte zu ändern : klicken Sie auf den grünen Tasten mit einem schwarzen Kreuz Zum Vergrößern, auf den grünen Button mit einem Gedankenstrich zu verkleinern, oder auf die grünen Pfeile für benachbarte Karten.


METAR-TAF: